createdAt,value
2019-06-27T18:54:30.595Z,65.77
2019-06-27T18:56:56.546Z,65.74
2019-06-27T18:59:22.419Z,66.34
2019-06-27T19:01:48.406Z,67.46
2019-06-27T19:04:14.598Z,68.22
2019-06-27T19:06:40.532Z,67.83
2019-06-27T19:09:06.444Z,68.23
2019-06-27T19:11:32.345Z,69.14
2019-06-27T19:13:58.293Z,70.06
2019-06-27T19:16:24.184Z,70.49
2019-06-27T19:18:52.103Z,71.46
2019-06-27T19:21:36.449Z,71.11
2019-06-27T19:24:07.073Z,72.60
2019-06-27T19:26:32.953Z,72.89
2019-06-27T19:28:58.871Z,72.89
2019-06-27T19:31:24.754Z,74.41
2019-06-27T19:33:50.792Z,74.64
2019-06-27T19:36:16.663Z,75.71
2019-06-27T19:38:42.588Z,75.11
2019-06-27T19:41:08.481Z,76.02
2019-06-27T19:43:34.409Z,76.04
2019-06-27T19:46:00.277Z,76.62
2019-06-27T19:48:26.215Z,76.47
2019-06-27T19:50:52.092Z,76.64
2019-06-27T19:53:18.004Z,77.50
2019-06-27T19:55:43.972Z,78.17
2019-06-27T19:58:09.848Z,78.91
2019-06-27T20:00:35.813Z,80.21
2019-06-27T20:03:01.706Z,80.69
2019-06-27T20:05:27.619Z,80.98
2019-06-27T20:07:53.511Z,81.75
2019-06-27T20:10:19.435Z,81.35
2019-06-27T20:12:45.419Z,82.21
2019-06-27T20:15:11.379Z,82.20
2019-06-27T20:17:37.269Z,82.99
2019-06-27T20:20:03.343Z,83.77
2019-06-27T20:22:29.309Z,84.85
2019-06-27T20:24:55.235Z,84.81
2019-06-27T20:27:21.148Z,84.99
2019-06-27T20:29:47.043Z,86.65
2019-06-27T20:32:12.967Z,86.09
2019-06-27T20:34:39.550Z,85.92
2019-06-27T20:37:05.649Z,86.26
2019-06-27T20:39:31.557Z,86.15
2019-06-27T20:41:57.458Z,85.67
2019-06-27T20:44:23.653Z,87.28
2019-06-27T20:46:49.578Z,87.05
2019-06-27T20:49:15.529Z,87.68
2019-06-27T20:51:41.589Z,88.19
2019-06-27T20:54:07.597Z,87.28
2019-06-27T20:56:33.509Z,87.53
2019-06-27T20:58:59.382Z,87.78
2019-06-27T21:01:25.328Z,88.03
2019-06-27T21:03:51.192Z,88.11
2019-06-27T21:06:17.155Z,88.74
2019-06-27T21:08:51.143Z,88.44
2019-06-27T21:11:10.839Z,88.37
2019-06-27T21:13:36.783Z,89.56
2019-06-27T21:16:02.656Z,89.44
2019-06-27T21:18:28.538Z,89.63
2019-06-27T21:20:54.461Z,90.25
2019-06-27T21:23:20.334Z,90.53
2019-06-27T21:25:46.241Z,91.17
2019-06-27T21:28:12.114Z,91.77
2019-06-27T21:30:38.020Z,91.46
2019-06-27T21:33:03.888Z,91.23
2019-06-27T21:35:29.778Z,91.12
2019-06-27T21:37:55.672Z,92.70
2019-06-27T21:40:22.608Z,93.91
2019-06-27T21:42:48.539Z,93.31
2019-06-27T21:45:14.469Z,93.01
2019-06-27T21:47:40.369Z,93.39
2019-06-27T21:50:06.788Z,93.58
2019-06-27T21:52:32.680Z,94.21
2019-06-27T21:54:58.617Z,95.29
2019-06-27T21:57:24.557Z,96.18
2019-06-27T21:59:50.532Z,96.07
2019-06-27T22:02:16.577Z,95.63
2019-06-27T22:04:42.504Z,94.71
2019-06-27T22:07:08.470Z,94.95
2019-06-27T22:09:34.347Z,95.14
2019-06-27T22:12:00.234Z,95.95
2019-06-27T22:14:26.146Z,96.54
2019-06-27T22:16:52.027Z,96.56
2019-06-27T22:19:17.940Z,96.45
2019-06-27T22:21:44.118Z,97.00
2019-06-27T22:24:10.066Z,98.49
2019-06-27T22:26:35.982Z,98.89
2019-06-27T22:29:02.002Z,100.00
2019-06-27T22:31:27.924Z,100.00
2019-06-27T22:33:53.872Z,100.00
2019-06-27T22:36:19.741Z,100.00
2019-06-27T22:39:04.607Z,100.00
2019-06-27T22:41:48.971Z,100.00
2019-06-27T22:44:33.627Z,100.00
2019-06-27T22:47:17.931Z,100.00
2019-06-27T22:49:43.820Z,100.00
2019-06-27T22:52:26.805Z,100.00
2019-06-27T22:54:54.668Z,100.00
2019-06-27T22:57:20.553Z,100.00
2019-06-27T22:59:46.419Z,100.00
2019-06-27T23:02:12.388Z,100.00
2019-06-27T23:04:38.264Z,100.00
2019-06-27T23:07:04.171Z,100.00
2019-06-27T23:09:30.077Z,100.00
2019-06-27T23:11:56.028Z,100.00
2019-06-27T23:14:21.996Z,100.00
2019-06-27T23:16:47.897Z,100.00
2019-06-27T23:19:13.836Z,100.00
2019-06-27T23:21:39.711Z,100.00
2019-06-27T23:24:05.622Z,100.00
2019-06-27T23:26:31.499Z,100.00
2019-06-27T23:28:57.420Z,100.00
2019-06-27T23:31:23.295Z,100.00
2019-06-27T23:33:49.175Z,100.00
2019-06-27T23:36:15.094Z,100.00
2019-06-27T23:38:40.954Z,100.00
2019-06-27T23:41:06.868Z,100.00
2019-06-27T23:43:32.732Z,100.00
2019-06-27T23:45:58.640Z,100.00
2019-06-27T23:48:24.526Z,100.00
2019-06-27T23:50:50.487Z,100.00
2019-06-27T23:53:16.462Z,100.00
2019-06-27T23:55:42.362Z,100.00
2019-06-27T23:58:08.277Z,100.00
